createdAt,value
2022-08-16T00:00:47.491Z,22.24
2022-08-16T00:03:20.492Z,22.07
2022-08-16T00:05:57.575Z,22.00
2022-08-16T00:08:36.088Z,21.82
2022-08-16T00:11:06.646Z,22.01
2022-08-16T00:13:41.851Z,22.03
2022-08-16T00:17:06.250Z,22.01
2022-08-16T00:19:00.791Z,21.88
2022-08-16T00:21:29.295Z,21.90
2022-08-16T00:23:59.643Z,21.86
2022-08-16T00:26:36.834Z,21.90
2022-08-16T00:29:13.075Z,21.89
2022-08-16T00:31:59.352Z,22.15
2022-08-16T00:34:43.419Z,21.99
2022-08-16T00:37:20.738Z,22.35
2022-08-16T00:39:56.913Z,22.38
2022-08-16T00:42:30.685Z,22.47
2022-08-16T00:45:06.349Z,22.42
2022-08-16T00:47:42.485Z,22.43
2022-08-16T00:50:14.008Z,22.51
2022-08-16T00:52:50.279Z,22.61
2022-08-16T00:55:23.059Z,22.48
2022-08-16T00:57:59.274Z,22.52
2022-08-16T01:00:31.813Z,22.52
2022-08-16T01:03:02.309Z,22.45
2022-08-16T01:05:32.818Z,22.48
2022-08-16T01:08:02.718Z,22.44
2022-08-16T01:10:53.156Z,22.44
2022-08-16T01:13:26.660Z,21.59
2022-08-16T01:15:59.034Z,22.34
2022-08-16T01:18:40.208Z,22.43
2022-08-16T01:21:22.850Z,22.43
2022-08-16T01:24:52.726Z,22.49
2022-08-16T01:27:04.211Z,22.49
2022-08-16T01:29:56.808Z,22.40
2022-08-16T01:32:33.771Z,22.33
2022-08-16T01:35:06.006Z,22.45
2022-08-16T01:37:44.316Z,22.47
2022-08-16T01:40:25.504Z,22.50
2022-08-16T01:42:56.480Z,22.38
2022-08-16T01:45:40.597Z,22.33
2022-08-16T01:48:19.225Z,22.50
2022-08-16T01:51:16.247Z,22.58
2022-08-16T01:53:41.106Z,22.46
2022-08-16T01:56:24.322Z,22.73
2022-08-16T01:58:55.280Z,22.68
2022-08-16T02:01:26.174Z,22.70
2022-08-16T02:03:58.503Z,22.82
2022-08-16T02:06:34.252Z,22.76
2022-08-16T02:09:05.641Z,22.86
2022-08-16T02:11:47.909Z,22.88
2022-08-16T02:14:22.553Z,22.83
2022-08-16T02:16:56.461Z,22.63
2022-08-16T02:19:59.187Z,22.56
2022-08-16T02:22:33.603Z,22.97
2022-08-16T02:25:09.972Z,22.99
2022-08-16T02:27:40.967Z,23.01
2022-08-16T02:30:35.725Z,22.59
2022-08-16T02:33:03.544Z,22.84
2022-08-16T02:35:33.278Z,22.62
2022-08-16T02:38:08.605Z,22.68
2022-08-16T02:40:37.620Z,22.53
2022-08-16T02:43:08.301Z,22.47
2022-08-16T02:45:36.459Z,22.30
2022-08-16T02:48:28.870Z,22.03
2022-08-16T02:51:06.043Z,22.16
2022-08-16T02:53:39.313Z,22.13
2022-08-16T02:56:14.654Z,22.00
2022-08-16T02:58:45.451Z,21.92
2022-08-16T03:01:24.722Z,21.81
2022-08-16T03:04:39.696Z,21.78
2022-08-16T03:06:56.603Z,21.75
2022-08-16T03:09:28.821Z,21.68
2022-08-16T03:11:58.364Z,21.79
2022-08-16T03:14:30.725Z,21.79
2022-08-16T03:17:00.692Z,21.95
2022-08-16T03:19:48.504Z,21.93
2022-08-16T03:22:28.403Z,22.09
2022-08-16T03:25:01.205Z,22.06
2022-08-16T03:27:31.250Z,22.12
2022-08-16T03:30:16.059Z,22.21
2022-08-16T03:32:47.711Z,22.15
2022-08-16T03:35:22.408Z,22.30
2022-08-16T03:38:03.231Z,22.33
2022-08-16T03:40:34.171Z,22.35
2022-08-16T03:43:20.303Z,22.39
2022-08-16T03:45:53.747Z,22.41
2022-08-16T03:48:36.585Z,22.35
2022-08-16T03:51:12.229Z,22.28
2022-08-16T03:53:41.998Z,22.43
2022-08-16T03:56:18.690Z,22.30
2022-08-16T03:58:50.832Z,21.98
2022-08-16T04:01:23.003Z,22.45
2022-08-16T04:03:52.777Z,22.33
2022-08-16T04:06:22.245Z,22.48
2022-08-16T04:08:50.838Z,22.55
2022-08-16T04:11:19.752Z,22.52
2022-08-16T04:14:01.371Z,22.53
2022-08-16T04:16:38.767Z,22.27
2022-08-16T04:19:07.207Z,22.60
2022-08-16T04:21:45.945Z,22.69
2022-08-16T04:24:15.706Z,22.58
2022-08-16T04:26:46.316Z,22.76
2022-08-16T04:29:24.426Z,22.66
2022-08-16T04:31:57.984Z,22.52
2022-08-16T04:34:28.824Z,22.88
2022-08-16T04:36:58.166Z,22.95
2022-08-16T04:39:45.632Z,22.95
2022-08-16T04:42:16.077Z,22.78
2022-08-16T04:44:57.509Z,23.04
2022-08-16T04:47:35.458Z,23.00
2022-08-16T04:50:06.516Z,22.55
2022-08-16T04:52:36.648Z,22.96
2022-08-16T04:55:11.926Z,22.85
2022-08-16T04:57:41.968Z,22.73
2022-08-16T05:00:32.914Z,22.78
2022-08-16T05:03:07.038Z,22.79
2022-08-16T05:05:55.622Z,22.88
2022-08-16T05:08:27.967Z,22.87
2022-08-16T05:11:03.363Z,22.55
2022-08-16T05:13:41.112Z,22.74
2022-08-16T05:16:16.765Z,22.69
2022-08-16T05:18:52.844Z,22.52
2022-08-16T05:21:22.343Z,22.16
2022-08-16T05:23:55.814Z,22.93
2022-08-16T05:26:28.398Z,22.97
2022-08-16T05:28:57.748Z,22.97
2022-08-16T05:31:29.655Z,22.88
2022-08-16T05:34:03.079Z,23.11
2022-08-16T05:36:34.240Z,23.20
2022-08-16T05:39:08.712Z,23.31
2022-08-16T05:41:45.682Z,23.41
2022-08-16T05:44:23.926Z,23.44
2022-08-16T05:46:55.128Z,23.45
2022-08-16T05:49:38.911Z,22.93
2022-08-16T05:52:11.637Z,23.15
2022-08-16T05:54:46.733Z,23.39
2022-08-16T05:57:16.742Z,23.23
2022-08-16T05:59:47.618Z,23.59
2022-08-16T06:02:19.727Z,23.64
2022-08-16T06:04:49.631Z,23.75
2022-08-16T06:07:24.680Z,23.79
2022-08-16T06:09:56.412Z,23.87
2022-08-16T06:12:26.803Z,23.94
2022-08-16T06:14:59.513Z,24.03
2022-08-16T06:17:41.176Z,24.08
2022-08-16T06:20:18.221Z,24.18
2022-08-16T06:22:58.683Z,24.04
2022-08-16T06:25:36.523Z,24.00
2022-08-16T06:28:17.318Z,24.19
2022-08-16T06:30:59.803Z,24.12
2022-08-16T06:33:30.420Z,24.11
2022-08-16T06:36:14.291Z,24.12
2022-08-16T06:38:56.161Z,24.16
2022-08-16T06:41:27.608Z,23.97
2022-08-16T06:43:56.649Z,24.34
2022-08-16T06:46:31.907Z,24.51
2022-08-16T06:49:01.818Z,24.52
2022-08-16T06:51:45.912Z,24.59
2022-08-16T06:54:17.303Z,24.37
2022-08-16T06:56:45.802Z,24.31
2022-08-16T06:59:14.067Z,23.95
2022-08-16T07:01:43.189Z,24.34
2022-08-16T07:04:12.953Z,24.39
2022-08-16T07:07:02.106Z,24.34
2022-08-16T07:09:31.590Z,24.27
2022-08-16T07:12:02.929Z,24.36
2022-08-16T07:14:32.281Z,24.40
2022-08-16T07:17:01.233Z,24.44
2022-08-16T07:20:01.684Z,24.56
2022-08-16T07:22:36.625Z,24.59
2022-08-16T07:25:09.315Z,24.56
2022-08-16T07:27:38.824Z,24.73
2022-08-16T07:30:39.785Z,24.73
2022-08-16T07:33:00.817Z,24.65
2022-08-16T07:35:29.171Z,24.54
2022-08-16T07:37:59.031Z,24.44
2022-08-16T07:40:57.997Z,24.11
2022-08-16T07:43:15.825Z,24.05
2022-08-16T07:45:48.256Z,23.85
2022-08-16T07:48:22.253Z,23.18
2022-08-16T07:50:56.352Z,23.61
2022-08-16T07:53:29.427Z,23.55
2022-08-16T07:55:59.525Z,23.29
2022-08-16T07:58:34.187Z,23.57
2022-08-16T08:01:10.511Z,23.82
2022-08-16T08:03:42.554Z,23.79
2022-08-16T08:06:13.654Z,23.58
2022-08-16T08:08:49.703Z,23.67
2022-08-16T08:11:23.620Z,23.43
2022-08-16T08:13:53.832Z,23.43
2022-08-16T08:16:30.349Z,23.93
2022-08-16T08:19:02.808Z,24.05
2022-08-16T08:21:58.806Z,23.55
2022-08-16T08:24:31.576Z,24.13
2022-08-16T08:27:02.216Z,24.23
2022-08-16T08:29:37.696Z,24.20
2022-08-16T08:32:58.775Z,23.93
2022-08-16T08:35:03.283Z,24.18
2022-08-16T08:37:54.595Z,24.13
2022-08-16T08:40:24.662Z,23.97
2022-08-16T08:42:57.803Z,24.08
2022-08-16T08:45:46.928Z,23.91
2022-08-16T08:48:35.125Z,23.94
2022-08-16T08:51:09.254Z,23.38
2022-08-16T08:53:38.929Z,23.82
2022-08-16T08:56:23.039Z,23.95
2022-08-16T08:58:58.847Z,24.13
2022-08-16T09:01:36.923Z,24.28
2022-08-16T09:04:14.890Z,24.35
2022-08-16T09:06:47.704Z,24.43
2022-08-16T09:09:17.718Z,24.44
2022-08-16T09:12:06.588Z,24.52
2022-08-16T09:14:38.787Z,24.80
2022-08-16T09:17:38.235Z,25.38
2022-08-16T09:20:07.759Z,25.75
2022-08-16T09:22:36.387Z,25.96
2022-08-16T09:25:10.173Z,26.29
2022-08-16T09:27:56.811Z,26.69
2022-08-16T09:30:33.444Z,26.83
2022-08-16T09:33:02.257Z,27.09
2022-08-16T09:35:31.607Z,27.28
2022-08-16T09:38:05.835Z,27.31
2022-08-16T09:40:42.556Z,27.40
2022-08-16T09:43:46.583Z,27.51
2022-08-16T09:46:45.731Z,27.36
2022-08-16T09:48:56.710Z,27.72
2022-08-16T09:51:30.799Z,27.77
2022-08-16T09:54:06.291Z,27.99
2022-08-16T09:56:53.229Z,28.20
2022-08-16T09:59:25.493Z,28.37
2022-08-16T10:02:01.067Z,28.49
2022-08-16T10:04:54.604Z,28.53
2022-08-16T10:07:23.889Z,27.67
2022-08-16T10:09:55.335Z,27.73
2022-08-16T10:12:43.454Z,28.00
2022-08-16T10:15:17.197Z,27.95
2022-08-16T10:18:00.736Z,28.04
2022-08-16T10:20:34.058Z,28.09
2022-08-16T10:23:07.240Z,28.12
2022-08-16T10:27:19.647Z,28.45
2022-08-16T10:28:32.065Z,28.44
2022-08-16T10:31:04.266Z,27.48
2022-08-16T10:33:34.813Z,28.14
2022-08-16T10:36:10.215Z,28.14
2022-08-16T10:38:42.585Z,28.23
2022-08-16T10:41:16.149Z,28.31
2022-08-16T10:43:45.329Z,28.46
2022-08-16T10:46:39.098Z,28.42
2022-08-16T10:49:09.292Z,28.33
2022-08-16T10:52:03.137Z,28.33
2022-08-16T10:54:29.059Z,28.54
2022-08-16T10:56:59.444Z,28.18
2022-08-16T10:59:39.206Z,28.23
2022-08-16T11:03:00.446Z,28.18
2022-08-16T11:05:11.776Z,28.14
2022-08-16T11:07:43.401Z,28.35
2022-08-16T11:11:04.972Z,28.79
2022-08-16T11:15:57.798Z,29.15
2022-08-16T11:19:04.699Z,29.18
2022-08-16T11:21:29.424Z,29.08
2022-08-16T11:23:59.651Z,30.01
2022-08-16T11:26:28.932Z,30.04
2022-08-16T11:29:14.535Z,29.98
2022-08-16T11:31:45.948Z,29.78
2022-08-16T11:34:24.966Z,29.82
2022-08-16T11:37:01.135Z,29.93
2022-08-16T11:39:30.658Z,30.46
2022-08-16T11:42:00.171Z,30.59
2022-08-16T11:44:40.648Z,30.60
2022-08-16T11:47:16.952Z,30.73
2022-08-16T11:49:46.758Z,30.65
2022-08-16T11:52:17.767Z,30.77
2022-08-16T11:54:56.946Z,30.68
2022-08-16T11:57:28.376Z,30.09
2022-08-16T11:59:56.615Z,30.23
2022-08-16T12:02:31.332Z,30.24
2022-08-16T12:05:02.566Z,30.25
2022-08-16T12:07:33.248Z,29.52
2022-08-16T12:10:02.237Z,29.97
2022-08-16T12:12:30.796Z,30.34
2022-08-16T12:15:01.517Z,30.42
2022-08-16T12:17:31.978Z,30.49
2022-08-16T12:20:04.715Z,30.37
2022-08-16T12:22:33.991Z,30.26
2022-08-16T12:25:16.807Z,30.54
2022-08-16T12:27:47.203Z,30.98
2022-08-16T12:30:27.028Z,31.33
2022-08-16T12:33:03.050Z,31.22
2022-08-16T12:35:33.825Z,31.44
2022-08-16T12:38:37.973Z,31.31
2022-08-16T12:40:57.091Z,31.54
2022-08-16T12:43:26.022Z,31.46
2022-08-16T12:45:59.775Z,32.14
2022-08-16T12:48:47.095Z,32.34
2022-08-16T12:51:22.375Z,32.41
2022-08-16T12:53:54.486Z,32.37
2022-08-16T12:56:25.711Z,32.06
2022-08-16T12:58:56.103Z,32.15
2022-08-16T13:01:28.879Z,32.52
2022-08-16T13:04:11.633Z,32.79
2022-08-16T13:06:44.383Z,32.98
2022-08-16T13:09:26.854Z,32.96
2022-08-16T13:12:05.678Z,33.63
2022-08-16T13:14:36.233Z,33.96
2022-08-16T13:17:07.158Z,34.00
2022-08-16T13:20:06.080Z,33.94
2022-08-16T13:22:26.947Z,34.26
2022-08-16T13:24:55.984Z,34.51
2022-08-16T13:27:34.993Z,34.80
2022-08-16T13:30:35.533Z,34.74
2022-08-16T13:33:02.167Z,34.93
2022-08-16T13:35:43.161Z,35.29
2022-08-16T13:38:25.106Z,35.35
2022-08-16T13:40:56.681Z,35.63
2022-08-16T13:43:26.599Z,36.05
2022-08-16T13:45:56.118Z,36.48
2022-08-16T13:48:26.133Z,36.74
2022-08-16T13:50:55.234Z,36.47
2022-08-16T13:53:28.584Z,36.22
2022-08-16T13:55:58.945Z,35.06
2022-08-16T13:58:37.028Z,34.55
2022-08-16T14:01:17.522Z,34.63
2022-08-16T14:03:47.383Z,34.64
2022-08-16T14:06:18.578Z,34.90
2022-08-16T14:08:59.032Z,35.26
2022-08-16T14:11:35.930Z,35.39
2022-08-16T14:14:05.286Z,35.55
2022-08-16T14:16:35.212Z,35.92
2022-08-16T14:19:03.869Z,36.43
2022-08-16T14:21:34.842Z,36.59
2022-08-16T14:24:08.084Z,36.67
2022-08-16T14:26:52.672Z,36.38
2022-08-16T14:29:21.693Z,36.65
2022-08-16T14:31:53.987Z,36.72
2022-08-16T14:34:25.766Z,36.93
2022-08-16T14:36:58.268Z,36.91
2022-08-16T14:39:29.651Z,36.86
2022-08-16T14:42:06.053Z,36.95
2022-08-16T14:44:34.684Z,37.07
2022-08-16T14:47:04.317Z,37.19
2022-08-16T14:49:34.728Z,37.24
2022-08-16T14:52:08.406Z,37.53
2022-08-16T14:54:39.682Z,37.73
2022-08-16T14:57:08.574Z,36.67
2022-08-16T14:59:37.595Z,36.10
2022-08-16T15:02:17.242Z,35.42
2022-08-16T15:05:04.618Z,34.75
2022-08-16T15:07:35.399Z,34.29
2022-08-16T15:10:06.642Z,33.76
2022-08-16T15:12:36.235Z,33.51
2022-08-16T15:15:12.710Z,33.20
2022-08-16T15:17:56.159Z,32.49
2022-08-16T15:20:29.644Z,32.65
2022-08-16T15:22:59.513Z,32.65
2022-08-16T15:25:33.244Z,32.56
2022-08-16T15:28:05.667Z,31.72
2022-08-16T15:30:58.450Z,32.34
2022-08-16T15:33:27.039Z,32.30
2022-08-16T15:35:58.225Z,32.35
2022-08-16T15:38:58.190Z,32.63
2022-08-16T15:41:47.050Z,33.84
2022-08-16T15:44:22.314Z,36.96
2022-08-16T15:46:54.574Z,38.92
2022-08-16T15:49:37.141Z,39.76
2022-08-16T15:52:11.761Z,39.63
2022-08-16T15:54:52.481Z,39.78
2022-08-16T15:57:24.493Z,39.86
2022-08-16T15:59:56.301Z,40.86
2022-08-16T16:02:33.689Z,41.49
2022-08-16T16:05:04.600Z,41.52
2022-08-16T16:07:33.917Z,41.08
2022-08-16T16:10:04.044Z,41.84
2022-08-16T16:12:51.608Z,42.86
2022-08-16T16:15:25.438Z,43.55
2022-08-16T16:17:55.502Z,43.54
2022-08-16T16:20:27.154Z,42.62
2022-08-16T16:22:57.685Z,41.23
2022-08-16T16:25:27.002Z,41.55
2022-08-16T16:27:59.734Z,42.21
2022-08-16T16:30:38.305Z,42.77
2022-08-16T16:33:20.507Z,43.27
2022-08-16T16:35:56.677Z,43.42
2022-08-16T16:38:29.069Z,41.48
2022-08-16T16:40:58.514Z,40.68
2022-08-16T16:43:31.648Z,40.52
2022-08-16T16:46:02.710Z,38.85
2022-08-16T16:48:35.418Z,37.43
2022-08-16T16:51:09.905Z,36.00
2022-08-16T16:53:42.264Z,34.27
2022-08-16T16:56:19.897Z,33.32
2022-08-16T16:59:00.835Z,32.48
2022-08-16T17:01:56.559Z,32.02
2022-08-16T17:04:31.416Z,31.29
2022-08-16T17:07:01.323Z,31.18
2022-08-16T17:09:29.842Z,30.77
2022-08-16T17:11:59.490Z,30.42
2022-08-16T17:14:33.340Z,29.92
2022-08-16T17:17:06.270Z,30.11
2022-08-16T17:19:40.197Z,29.95
2022-08-16T17:22:14.368Z,29.69
2022-08-16T17:27:37.490Z,29.18
2022-08-16T17:30:16.038Z,28.99
2022-08-16T17:32:50.106Z,28.80
2022-08-16T17:35:23.245Z,28.16
2022-08-16T17:38:04.822Z,28.45
2022-08-16T17:39:27.988Z,29.34
2022-08-16T17:40:47.077Z,28.21
2022-08-16T17:43:27.649Z,27.99
2022-08-16T17:45:58.894Z,27.68
2022-08-16T17:48:27.793Z,27.69
2022-08-16T17:50:56.164Z,27.46
2022-08-16T17:53:25.029Z,27.50
2022-08-16T17:55:54.701Z,27.34
2022-08-16T17:58:24.488Z,26.78
2022-08-16T18:00:56.384Z,27.12
2022-08-16T18:04:02.810Z,26.97
2022-08-16T18:06:18.797Z,26.72
2022-08-16T18:08:48.911Z,26.71
2022-08-16T18:11:24.253Z,26.82
2022-08-16T18:13:55.885Z,26.73
2022-08-16T18:16:24.359Z,26.57
2022-08-16T18:18:54.168Z,26.43
2022-08-16T18:21:40.045Z,26.29
2022-08-16T18:24:08.915Z,26.23
2022-08-16T18:26:37.528Z,26.02
2022-08-16T18:29:06.477Z,25.63
2022-08-16T18:31:35.183Z,26.07
2022-08-16T18:34:04.974Z,26.00
2022-08-16T18:36:33.542Z,25.73
2022-08-16T18:39:02.215Z,25.82
2022-08-16T18:41:30.675Z,25.92
2022-08-16T18:44:25.047Z,25.83
2022-08-16T18:46:50.933Z,25.88
2022-08-16T18:49:21.233Z,25.79
2022-08-16T18:51:51.039Z,25.85
2022-08-16T18:54:19.780Z,25.79
2022-08-16T18:56:56.298Z,25.81
2022-08-16T18:59:27.514Z,25.67
2022-08-16T19:02:00.028Z,25.37
2022-08-16T19:04:47.966Z,25.45
2022-08-16T19:07:31.302Z,25.51
2022-08-16T19:10:01.348Z,25.19
2022-08-16T19:12:38.173Z,25.39
2022-08-16T19:15:13.500Z,25.33
2022-08-16T19:17:43.254Z,25.02
2022-08-16T19:20:15.299Z,24.69
2022-08-16T19:25:47.039Z,25.27
2022-08-16T19:28:52.045Z,25.05
2022-08-16T19:31:06.638Z,25.12
2022-08-16T19:33:35.020Z,25.20
2022-08-16T19:36:07.190Z,25.00
2022-08-16T19:38:40.028Z,24.96
2022-08-16T19:41:08.653Z,25.14
2022-08-16T19:43:37.119Z,25.06
2022-08-16T19:46:05.599Z,24.43
2022-08-16T19:48:33.858Z,24.79
2022-08-16T19:51:02.242Z,24.95
2022-08-16T19:53:31.918Z,24.84
2022-08-16T19:56:00.630Z,24.27
2022-08-16T19:58:29.230Z,24.78
2022-08-16T20:00:57.963Z,24.71
2022-08-16T20:03:27.590Z,24.54
2022-08-16T20:05:57.065Z,24.61
2022-08-16T20:08:25.730Z,24.64
2022-08-16T20:10:55.498Z,24.68
2022-08-16T20:13:25.349Z,24.58
2022-08-16T20:15:54.026Z,24.65
2022-08-16T20:18:25.429Z,24.39
2022-08-16T20:20:56.185Z,24.54
2022-08-16T20:23:25.487Z,24.63
2022-08-16T20:26:03.459Z,24.64
2022-08-16T20:28:51.730Z,24.35
2022-08-16T20:31:21.015Z,24.37
2022-08-16T20:33:50.644Z,23.96
2022-08-16T20:36:19.010Z,24.19
2022-08-16T20:38:48.112Z,24.36
2022-08-16T20:41:18.891Z,24.27
2022-08-16T20:43:48.686Z,24.35
2022-08-16T20:46:17.090Z,24.28
2022-08-16T20:48:45.482Z,24.39
2022-08-16T20:51:13.866Z,24.28
2022-08-16T20:53:43.288Z,24.11
2022-08-16T20:56:12.687Z,24.18
2022-08-16T20:58:42.502Z,23.89
2022-08-16T21:01:10.816Z,24.29
2022-08-16T21:03:39.671Z,24.21
2022-08-16T21:06:08.383Z,24.22
2022-08-16T21:08:53.209Z,24.15
2022-08-16T21:11:23.767Z,24.24
2022-08-16T21:14:00.077Z,24.22
2022-08-16T21:16:28.885Z,24.01
2022-08-16T21:18:57.154Z,24.31
2022-08-16T21:21:31.852Z,24.38
2022-08-16T21:24:01.828Z,24.15
2022-08-16T21:26:30.340Z,23.58
2022-08-16T21:28:59.987Z,24.10
2022-08-16T21:31:28.229Z,24.13
2022-08-16T21:33:56.638Z,24.05
2022-08-16T21:36:35.866Z,23.94
2022-08-16T21:39:06.718Z,23.63
2022-08-16T21:41:35.782Z,23.85
2022-08-16T21:44:06.090Z,23.95
2022-08-16T21:46:34.739Z,23.72
2022-08-16T21:49:04.804Z,23.69
2022-08-16T21:51:33.409Z,23.55
2022-08-16T21:54:01.700Z,23.65
2022-08-16T21:56:30.107Z,23.60
2022-08-16T21:58:58.449Z,23.51
2022-08-16T22:01:29.631Z,23.67
2022-08-16T22:04:35.229Z,23.64
2022-08-16T22:06:46.279Z,23.27
2022-08-16T22:09:16.546Z,23.28
2022-08-16T22:11:45.929Z,23.14
2022-08-16T22:14:14.125Z,23.14
2022-08-16T22:16:44.228Z,23.21
2022-08-16T22:19:13.746Z,23.13
2022-08-16T22:21:42.215Z,23.19
2022-08-16T22:24:11.131Z,23.08
2022-08-16T22:26:43.285Z,23.13
2022-08-16T22:29:15.075Z,23.19
2022-08-16T22:31:45.508Z,23.28
2022-08-16T22:34:14.303Z,23.15
2022-08-16T22:36:44.486Z,23.03
2022-08-16T22:39:15.248Z,22.91
2022-08-16T22:41:45.923Z,23.05
2022-08-16T22:44:14.670Z,22.97
2022-08-16T22:46:44.662Z,22.96
2022-08-16T22:49:13.762Z,22.97
2022-08-16T22:51:42.499Z,22.89
2022-08-16T22:54:44.319Z,22.70
2022-08-16T22:56:59.673Z,22.89
2022-08-16T22:59:28.859Z,22.86
2022-08-16T23:01:58.601Z,22.83
2022-08-16T23:04:27.110Z,22.58
2022-08-16T23:06:55.549Z,22.45
2022-08-16T23:09:23.866Z,22.37
2022-08-16T23:11:52.123Z,22.38
2022-08-16T23:14:20.549Z,21.98
2022-08-16T23:16:48.811Z,22.45
2022-08-16T23:19:19.207Z,22.47
2022-08-16T23:21:49.530Z,22.43
2022-08-16T23:24:20.635Z,22.12
2022-08-16T23:26:49.847Z,22.46
2022-08-16T23:29:24.451Z,22.20
2022-08-16T23:31:56.962Z,22.32
2022-08-16T23:34:28.199Z,22.08
2022-08-16T23:36:57.024Z,21.88
2022-08-16T23:39:25.599Z,22.29
2022-08-16T23:41:54.015Z,22.26
2022-08-16T23:44:55.536Z,22.18
2022-08-16T23:47:11.042Z,22.02
2022-08-16T23:49:56.030Z,22.13
2022-08-16T23:52:42.236Z,22.05
2022-08-16T23:55:17.075Z,22.12
2022-08-16T23:57:46.354Z,22.12
